createdAt,value
2019-04-28T00:00:42.515Z,74.08
2019-04-28T00:03:11.874Z,74.25
2019-04-28T00:05:41.631Z,74.39
2019-04-28T00:08:10.987Z,74.48
2019-04-28T00:10:41.864Z,74.45
2019-04-28T00:13:11.448Z,74.52
2019-04-28T00:15:41.815Z,74.62
2019-04-28T00:18:12.216Z,74.58
2019-04-28T00:20:43.216Z,74.62
2019-04-28T00:23:31.866Z,74.75
2019-04-28T00:26:14.493Z,74.93
2019-04-28T00:28:43.903Z,74.94
2019-04-28T00:31:13.294Z,74.91
2019-04-28T00:33:43.593Z,74.85
2019-04-28T00:36:13.004Z,74.95
2019-04-28T00:38:42.416Z,74.85
2019-04-28T00:41:11.816Z,74.86
2019-04-28T00:43:41.808Z,74.96
2019-04-28T00:46:12.549Z,75.09
2019-04-28T00:48:41.893Z,75.12
2019-04-28T00:51:11.637Z,75.21
2019-04-28T00:53:41.040Z,75.25
2019-04-28T00:56:12.071Z,75.10
2019-04-28T00:58:41.810Z,75.26
2019-04-28T01:01:18.409Z,75.41
2019-04-28T01:03:47.799Z,75.55
2019-04-28T01:06:17.161Z,75.60
2019-04-28T01:08:46.552Z,75.70
2019-04-28T01:11:15.926Z,75.79
2019-04-28T01:13:45.325Z,75.87
2019-04-28T01:16:30.056Z,75.99
2019-04-28T01:19:01.120Z,76.00
2019-04-28T01:21:37.717Z,76.00
2019-04-28T01:24:07.102Z,75.99
2019-04-28T01:26:36.472Z,76.02
2019-04-28T01:29:05.856Z,75.93
2019-04-28T01:31:39.725Z,75.87
2019-04-28T01:34:13.554Z,75.90
2019-04-28T01:36:42.924Z,75.94
2019-04-28T01:39:12.356Z,75.91
2019-04-28T01:41:41.849Z,75.95
2019-04-28T01:44:11.254Z,75.96
2019-04-28T01:46:40.681Z,76.13
2019-04-28T01:49:10.060Z,76.16
2019-04-28T01:51:41.448Z,76.08
2019-04-28T01:54:11.720Z,76.20
2019-04-28T01:56:41.913Z,76.24
2019-04-28T01:59:12.201Z,76.35
2019-04-28T02:01:41.730Z,76.36
2019-04-28T02:04:11.188Z,76.36
2019-04-28T02:06:40.593Z,76.50
2019-04-28T02:09:10.184Z,76.45
2019-04-28T02:11:41.383Z,76.50
2019-04-28T02:14:11.700Z,76.55
2019-04-28T02:16:41.060Z,76.62
2019-04-28T02:19:10.748Z,76.75
2019-04-28T02:21:41.785Z,76.73
2019-04-28T02:24:30.542Z,76.68
2019-04-28T02:27:00.861Z,76.68
2019-04-28T02:29:30.662Z,76.69
2019-04-28T02:32:02.061Z,76.67
2019-04-28T02:34:32.231Z,76.61
2019-04-28T02:37:02.028Z,76.65
2019-04-28T02:39:32.461Z,76.63
2019-04-28T02:42:02.079Z,76.55
2019-04-28T02:44:35.001Z,76.54
2019-04-28T02:47:04.545Z,76.55
2019-04-28T02:49:35.555Z,76.61
2019-04-28T02:52:10.744Z,76.66
2019-04-28T02:54:40.509Z,76.78
2019-04-28T02:57:10.783Z,76.88
2019-04-28T02:59:44.296Z,76.93
2019-04-28T03:02:11.503Z,76.97
2019-04-28T03:04:42.034Z,77.09
2019-04-28T03:07:14.378Z,77.17
2019-04-28T03:09:42.440Z,77.19
2019-04-28T03:12:11.770Z,77.21
2019-04-28T03:14:43.945Z,77.25
2019-04-28T03:17:12.229Z,77.33
2019-04-28T03:19:41.879Z,77.43
2019-04-28T03:22:11.699Z,77.47
2019-04-28T03:24:42.154Z,77.59
2019-04-28T03:27:13.157Z,77.62
2019-04-28T03:29:46.612Z,77.67
2019-04-28T03:32:36.663Z,77.77
2019-04-28T03:34:53.709Z,77.93
2019-04-28T03:37:24.240Z,77.91
2019-04-28T03:39:53.708Z,78.02
2019-04-28T03:42:23.168Z,77.98
2019-04-28T03:44:53.030Z,78.09
2019-04-28T03:47:22.433Z,78.17
2019-04-28T03:49:51.765Z,78.22
2019-04-28T03:52:21.650Z,78.26
2019-04-28T03:54:51.371Z,78.26
2019-04-28T03:57:21.960Z,78.27
2019-04-28T03:59:51.635Z,78.27
2019-04-28T04:02:23.614Z,78.37
2019-04-28T04:04:52.797Z,78.36
2019-04-28T04:07:22.357Z,78.45
2019-04-28T04:09:56.276Z,78.53
2019-04-28T04:12:30.860Z,78.59
2019-04-28T04:15:04.000Z,78.71
2019-04-28T04:17:34.846Z,78.78
2019-04-28T04:20:06.841Z,78.87
2019-04-28T04:22:36.213Z,78.88
2019-04-28T04:25:08.776Z,78.92
2019-04-28T04:27:36.640Z,78.98
2019-04-28T04:30:06.564Z,79.00
2019-04-28T04:32:35.905Z,79.02
2019-04-28T04:35:05.610Z,79.01
2019-04-28T04:37:34.971Z,79.00
2019-04-28T04:40:05.992Z,79.02
2019-04-28T04:42:35.386Z,79.04
2019-04-28T04:45:05.621Z,79.08
2019-04-28T04:47:34.970Z,79.07
2019-04-28T04:50:05.992Z,79.06
2019-04-28T04:52:35.341Z,79.15
2019-04-28T04:55:05.601Z,79.25
2019-04-28T04:57:34.981Z,79.13
2019-04-28T05:00:10.032Z,79.09
2019-04-28T05:02:52.011Z,79.08
2019-04-28T05:05:25.418Z,79.07
2019-04-28T05:07:54.765Z,79.08
2019-04-28T05:10:24.127Z,79.15
2019-04-28T05:12:53.453Z,79.23
2019-04-28T05:15:22.828Z,79.18
2019-04-28T05:17:52.208Z,79.11
2019-04-28T05:20:21.577Z,78.94
2019-04-28T05:23:01.378Z,78.92
2019-04-28T05:25:32.642Z,78.94
2019-04-28T05:28:03.045Z,78.96
2019-04-28T05:30:37.439Z,79.04
2019-04-28T05:33:04.170Z,78.99
2019-04-28T05:35:35.698Z,78.77
2019-04-28T05:38:04.797Z,78.72
2019-04-28T05:40:34.157Z,78.73
2019-04-28T05:43:03.545Z,78.54
2019-04-28T05:45:32.932Z,78.43
2019-04-28T05:48:02.333Z,78.43
2019-04-28T05:50:40.130Z,78.34
2019-04-28T05:53:22.829Z,78.27
2019-04-28T05:56:02.814Z,78.22
2019-04-28T05:58:36.543Z,78.09
2019-04-28T06:01:25.646Z,78.14
2019-04-28T06:03:55.058Z,77.82
2019-04-28T06:06:26.028Z,77.54
2019-04-28T06:09:02.677Z,77.43
2019-04-28T06:11:36.575Z,77.42
2019-04-28T06:14:05.928Z,77.34
2019-04-28T06:16:35.265Z,77.18
2019-04-28T06:19:04.621Z,77.24
2019-04-28T06:21:33.967Z,77.27
2019-04-28T06:24:03.362Z,76.83
2019-04-28T06:26:32.737Z,76.58
2019-04-28T06:29:03.181Z,76.82
2019-04-28T06:31:32.543Z,76.73
2019-04-28T06:34:01.868Z,76.44
2019-04-28T06:36:31.297Z,76.09
2019-04-28T06:39:00.636Z,75.47
2019-04-28T06:41:31.897Z,75.17
2019-04-28T06:44:01.304Z,74.98
2019-04-28T06:46:30.656Z,74.37
2019-04-28T06:49:00.057Z,74.15
2019-04-28T06:51:29.406Z,73.42
2019-04-28T06:53:58.795Z,73.08
2019-04-28T06:56:28.184Z,72.32
2019-04-28T06:58:59.271Z,72.57
2019-04-28T07:01:28.808Z,71.96
2019-04-28T07:03:58.179Z,70.77
2019-04-28T07:06:27.566Z,70.33
2019-04-28T07:08:56.917Z,69.51
2019-04-28T07:11:26.390Z,69.50
2019-04-28T07:13:55.727Z,68.71
2019-04-28T07:16:26.082Z,68.95
2019-04-28T07:18:55.452Z,68.87
2019-04-28T07:21:29.419Z,68.19
2019-04-28T07:23:58.777Z,67.95
2019-04-28T07:26:28.181Z,66.70
2019-04-28T07:28:57.536Z,67.50
2019-04-28T07:31:26.995Z,67.31
2019-04-28T07:33:56.356Z,66.90
2019-04-28T07:36:25.751Z,66.72
2019-04-28T07:38:55.096Z,66.53
2019-04-28T07:41:24.514Z,64.39
2019-04-28T07:43:53.903Z,62.14
2019-04-28T07:46:23.348Z,63.05
2019-04-28T07:48:52.734Z,63.97
2019-04-28T07:51:23.771Z,62.88
2019-04-28T07:54:04.504Z,61.80
2019-04-28T07:56:31.595Z,61.48
2019-04-28T07:59:00.967Z,62.08
2019-04-28T08:01:30.420Z,62.52
2019-04-28T08:03:59.744Z,62.67
2019-04-28T08:06:29.155Z,62.49
2019-04-28T08:08:58.548Z,62.62
2019-04-28T08:11:27.916Z,63.99
2019-04-28T08:13:57.301Z,64.36
2019-04-28T08:16:26.711Z,63.71
2019-04-28T08:18:56.112Z,64.31
2019-04-28T08:21:25.488Z,64.18
2019-04-28T08:23:54.877Z,63.76
2019-04-28T08:26:24.269Z,64.52
2019-04-28T08:28:53.603Z,65.43
2019-04-28T08:31:24.635Z,65.89
2019-04-28T08:34:02.103Z,66.12
2019-04-28T08:36:26.723Z,65.94
2019-04-28T08:38:56.098Z,66.79
2019-04-28T08:41:25.445Z,67.47
2019-04-28T08:43:54.799Z,67.99
2019-04-28T08:46:24.163Z,67.94
2019-04-28T08:48:53.495Z,67.36
2019-04-28T08:51:22.872Z,66.77
2019-04-28T08:53:52.248Z,67.44
2019-04-28T08:56:21.587Z,67.96
2019-04-28T08:58:50.966Z,68.50
2019-04-28T09:01:20.349Z,68.18
2019-04-28T09:03:49.747Z,67.54
2019-04-28T09:06:19.083Z,67.53
2019-04-28T09:08:48.428Z,67.86
2019-04-28T09:11:17.882Z,67.42
2019-04-28T09:13:47.948Z,66.55
2019-04-28T09:16:17.294Z,66.75
2019-04-28T09:18:46.679Z,66.52
2019-04-28T09:21:16.125Z,66.28
2019-04-28T09:23:45.489Z,65.88
2019-04-28T09:26:14.885Z,64.89
2019-04-28T09:28:44.230Z,64.46
2019-04-28T09:31:13.613Z,64.42
2019-04-28T09:33:42.971Z,63.85
2019-04-28T09:36:12.334Z,64.32
2019-04-28T09:38:42.680Z,65.04
2019-04-28T09:41:12.087Z,66.23
2019-04-28T09:43:52.124Z,67.73
2019-04-28T09:46:23.143Z,68.98
2019-04-28T09:48:52.589Z,69.57
2019-04-28T09:51:21.971Z,69.57
2019-04-28T09:53:51.310Z,69.65
2019-04-28T09:56:20.641Z,69.40
2019-04-28T09:58:49.998Z,69.58
2019-04-28T10:01:19.378Z,69.52
2019-04-28T10:03:48.706Z,68.39
2019-04-28T10:06:18.093Z,68.02
2019-04-28T10:08:47.485Z,67.03
2019-04-28T10:11:29.698Z,65.67
2019-04-28T10:13:47.942Z,63.55
2019-04-28T10:16:17.302Z,62.53
2019-04-28T10:18:46.686Z,61.65
2019-04-28T10:21:16.034Z,61.80
2019-04-28T10:23:45.407Z,60.46
2019-04-28T10:26:14.767Z,60.96
2019-04-28T10:28:44.163Z,60.78
2019-04-28T10:31:13.616Z,60.46
2019-04-28T10:33:44.619Z,60.72
2019-04-28T10:36:15.654Z,61.01
2019-04-28T10:38:46.648Z,62.25
2019-04-28T10:41:26.665Z,62.70
2019-04-28T10:43:56.012Z,62.32
2019-04-28T10:46:25.361Z,61.88
2019-04-28T10:48:54.752Z,61.58
2019-04-28T10:51:24.145Z,62.37
2019-04-28T10:53:53.491Z,63.11
2019-04-28T10:56:22.871Z,63.17
2019-04-28T10:58:53.843Z,63.23
2019-04-28T11:01:23.196Z,63.21
2019-04-28T11:03:54.221Z,63.31
2019-04-28T11:06:23.691Z,63.16
2019-04-28T11:09:13.584Z,63.22
2019-04-28T11:11:42.910Z,64.23
2019-04-28T11:14:14.274Z,65.04
2019-04-28T11:16:43.375Z,64.41
2019-04-28T11:19:13.206Z,64.34
2019-04-28T11:21:42.650Z,64.15
2019-04-28T11:24:12.221Z,64.71
2019-04-28T11:26:41.627Z,64.52
2019-04-28T11:29:11.075Z,65.17
2019-04-28T11:31:40.473Z,65.68
2019-04-28T11:34:20.525Z,65.65
2019-04-28T11:36:50.004Z,64.68
2019-04-28T11:39:21.243Z,64.65
2019-04-28T11:41:50.667Z,65.29
2019-04-28T11:44:20.031Z,65.01
2019-04-28T11:46:49.419Z,64.07
2019-04-28T11:49:18.778Z,63.99
2019-04-28T11:51:48.099Z,64.20
2019-04-28T11:54:17.458Z,64.51
2019-04-28T11:56:46.912Z,64.64
2019-04-28T11:59:16.264Z,63.90
2019-04-28T12:01:45.653Z,63.75
2019-04-28T12:04:16.829Z,63.79
2019-04-28T12:06:46.216Z,62.46
2019-04-28T12:09:17.202Z,62.62
2019-04-28T12:11:48.222Z,63.24
2019-04-28T12:14:19.235Z,63.00
2019-04-28T12:16:50.272Z,62.38
2019-04-28T12:19:24.254Z,62.50
2019-04-28T12:21:53.579Z,61.60
2019-04-28T12:24:22.924Z,60.67
2019-04-28T12:26:52.318Z,59.51
2019-04-28T12:29:21.684Z,58.79
2019-04-28T12:31:51.074Z,60.49
2019-04-28T12:34:20.443Z,61.01
2019-04-28T12:36:50.513Z,60.06
2019-04-28T12:39:19.887Z,58.87
2019-04-28T12:41:49.263Z,59.27
2019-04-28T12:44:18.651Z,58.69
2019-04-28T12:46:48.027Z,57.37
2019-04-28T12:49:33.599Z,57.10
2019-04-28T12:52:03.679Z,57.58
2019-04-28T12:54:34.657Z,56.75
2019-04-28T12:57:04.054Z,57.40
2019-04-28T12:59:38.000Z,58.28
2019-04-28T13:02:09.052Z,58.22
2019-04-28T13:04:40.087Z,58.37
2019-04-28T13:07:09.954Z,58.65
2019-04-28T13:09:39.296Z,59.02
2019-04-28T13:12:08.762Z,59.41
2019-04-28T13:14:38.129Z,59.48
2019-04-28T13:17:07.494Z,60.06
2019-04-28T13:19:36.879Z,60.62
2019-04-28T13:22:06.306Z,60.93
2019-04-28T13:24:35.699Z,60.85
2019-04-28T13:27:05.071Z,60.89
2019-04-28T13:29:34.420Z,60.85
2019-04-28T13:32:03.788Z,61.37
2019-04-28T13:34:34.838Z,62.16
2019-04-28T13:37:04.246Z,62.23
2019-04-28T13:39:37.879Z,62.13
2019-04-28T13:42:07.248Z,62.41
2019-04-28T13:44:50.132Z,62.65
2019-04-28T13:47:19.662Z,62.87
2019-04-28T13:49:50.704Z,62.76
2019-04-28T13:52:20.088Z,62.42
2019-04-28T13:54:51.165Z,62.31
2019-04-28T13:57:20.536Z,62.54
2019-04-28T13:59:51.572Z,62.42
2019-04-28T14:02:34.298Z,62.30
2019-04-28T14:05:21.865Z,61.90
2019-04-28T14:07:51.234Z,61.53
2019-04-28T14:10:20.614Z,61.99
2019-04-28T14:12:49.998Z,61.78
2019-04-28T14:15:19.354Z,61.15
2019-04-28T14:17:48.698Z,59.37
2019-04-28T14:20:18.045Z,58.98
2019-04-28T14:22:47.403Z,59.19
2019-04-28T14:25:16.808Z,58.28
2019-04-28T14:27:46.169Z,58.17
2019-04-28T14:30:15.798Z,57.73
2019-04-28T14:32:45.202Z,57.50
2019-04-28T14:35:15.196Z,57.69
2019-04-28T14:37:44.594Z,57.30
2019-04-28T14:40:14.243Z,57.30
2019-04-28T14:42:43.605Z,57.26
2019-04-28T14:45:13.686Z,57.73
2019-04-28T14:47:43.033Z,58.00
2019-04-28T14:50:12.614Z,58.26
2019-04-28T14:52:41.961Z,58.19
2019-04-28T14:55:11.437Z,58.78
2019-04-28T14:57:40.806Z,58.62
2019-04-28T15:00:12.295Z,58.48
2019-04-28T15:02:52.300Z,58.88
2019-04-28T15:05:26.255Z,58.97
2019-04-28T15:08:03.199Z,58.95
2019-04-28T15:10:40.096Z,58.74
2019-04-28T15:13:09.513Z,58.15
2019-04-28T15:15:38.822Z,57.13
2019-04-28T15:33:00.614Z,57.55
2019-04-28T15:35:29.972Z,57.24
2019-04-28T15:37:59.390Z,56.91
2019-04-28T15:40:28.727Z,56.79
2019-04-28T15:42:58.128Z,56.82
2019-04-28T15:45:27.494Z,56.69
2019-04-28T15:47:57.002Z,56.67
2019-04-28T15:50:26.361Z,56.42
2019-04-28T15:52:55.783Z,56.27
2019-04-28T15:55:32.782Z,56.21
2019-04-28T15:58:03.797Z,56.15
2019-04-28T16:00:33.193Z,56.13
2019-04-28T16:03:02.535Z,56.14
2019-04-28T16:05:31.904Z,56.24
2019-04-28T16:08:01.278Z,56.29
2019-04-28T16:10:30.654Z,56.64
2019-04-28T16:13:00.004Z,56.86
2019-04-28T16:15:29.392Z,57.11
2019-04-28T16:17:58.775Z,57.27
2019-04-28T16:20:29.725Z,57.26
2019-04-28T16:22:59.210Z,57.25
2019-04-28T16:25:28.598Z,57.30
2019-04-28T16:27:58.005Z,57.21
2019-04-28T16:30:28.430Z,57.08
2019-04-28T16:32:57.817Z,56.80
2019-04-28T16:35:27.273Z,56.71
2019-04-28T16:37:56.625Z,56.60
2019-04-28T16:40:26.511Z,56.38
2019-04-28T16:42:56.256Z,56.11
2019-04-28T16:45:25.612Z,56.10
2019-04-28T16:47:54.957Z,56.23
2019-04-28T16:50:24.398Z,56.45
2019-04-28T16:52:56.616Z,56.30
2019-04-28T16:55:35.166Z,55.99
2019-04-28T16:58:24.050Z,56.14
2019-04-28T17:00:57.952Z,56.42
2019-04-28T17:03:29.056Z,56.63
2019-04-28T17:05:58.423Z,56.19
2019-04-28T17:08:27.783Z,56.24
2019-04-28T17:10:57.145Z,56.52
2019-04-28T17:13:26.595Z,57.26
2019-04-28T17:15:55.943Z,57.73
2019-04-28T17:18:25.320Z,58.16
2019-04-28T17:20:55.217Z,58.19
2019-04-28T17:23:24.512Z,58.13
2019-04-28T17:25:53.931Z,58.09
2019-04-28T17:28:23.336Z,57.95
2019-04-28T17:30:52.696Z,58.28
2019-04-28T17:33:22.071Z,57.57
2019-04-28T17:35:51.419Z,57.90
2019-04-28T17:38:20.763Z,57.99
2019-04-28T17:40:50.278Z,58.13
2019-04-28T17:43:19.691Z,58.17
2019-04-28T17:45:49.097Z,58.25
2019-04-28T17:48:23.002Z,58.35
2019-04-28T17:50:52.365Z,58.47
2019-04-28T17:53:21.760Z,58.40
2019-04-28T17:55:51.132Z,58.46
2019-04-28T17:58:20.505Z,58.59
2019-04-28T18:00:57.158Z,59.12
2019-04-28T18:03:44.312Z,59.47
2019-04-28T18:06:17.819Z,60.36
2019-04-28T18:08:46.355Z,61.50
2019-04-28T18:11:15.766Z,62.46
2019-04-28T18:13:45.136Z,63.30
2019-04-28T18:16:32.336Z,63.79
2019-04-28T18:19:05.989Z,64.50
2019-04-28T18:21:35.436Z,64.85
2019-04-28T18:24:04.897Z,65.38
2019-04-28T18:26:34.340Z,65.60
2019-04-28T18:29:04.193Z,66.41
2019-04-28T18:31:38.158Z,66.41
2019-04-28T18:34:24.068Z,67.07
2019-04-28T18:37:01.030Z,67.42
2019-04-28T18:39:48.412Z,67.58
2019-04-28T18:42:22.074Z,67.58
2019-04-28T18:44:51.482Z,68.67
2019-04-28T18:47:20.851Z,68.95
2019-04-28T18:49:50.216Z,69.38
2019-04-28T18:52:19.593Z,69.38
2019-04-28T18:54:48.959Z,70.15
2019-04-28T18:57:18.305Z,70.47
2019-04-28T18:59:47.713Z,70.90
2019-04-28T19:02:34.909Z,70.90
2019-04-28T19:05:06.510Z,70.96
2019-04-28T19:07:50.093Z,71.22
2019-04-28T19:10:26.820Z,71.57
2019-04-28T19:13:12.663Z,71.94
2019-04-28T19:15:59.827Z,72.24
2019-04-28T19:18:48.897Z,72.46
2019-04-28T19:21:18.278Z,72.75
2019-04-28T19:23:47.679Z,73.06
2019-04-28T19:26:17.111Z,73.40
2019-04-28T19:28:46.474Z,73.64
2019-04-28T19:31:15.860Z,73.99
2019-04-28T19:33:45.230Z,74.36
2019-04-28T19:36:14.631Z,74.80
2019-04-28T19:38:43.977Z,75.13
2019-04-28T19:41:14.389Z,75.29
2019-04-28T19:43:43.740Z,75.66
2019-04-28T19:46:14.787Z,75.87
2019-04-28T19:48:44.234Z,76.08
2019-04-28T19:51:13.583Z,76.30
2019-04-28T19:53:42.983Z,76.54
2019-04-28T19:56:16.899Z,76.75
2019-04-28T19:58:50.601Z,76.95
2019-04-28T20:01:21.555Z,77.17
2019-04-28T20:03:51.002Z,77.40
2019-04-28T20:06:20.320Z,77.75
2019-04-28T20:08:49.722Z,77.98
2019-04-28T20:11:19.132Z,78.16
2019-04-28T20:13:48.507Z,78.32
2019-04-28T20:16:18.850Z,78.51
2019-04-28T20:18:49.028Z,78.64
2019-04-28T20:21:18.501Z,78.89
2019-04-28T20:23:47.900Z,79.07
2019-04-28T20:26:17.356Z,79.18
2019-04-28T20:28:46.715Z,79.29
2019-04-28T20:31:16.058Z,79.45
2019-04-28T20:33:45.463Z,79.59
2019-04-28T20:36:34.555Z,79.80
2019-04-28T20:39:07.543Z,79.95
2019-04-28T20:41:38.508Z,80.10
2019-04-28T20:44:07.875Z,80.28
2019-04-28T20:46:37.387Z,80.57
2019-04-28T20:49:06.791Z,80.76
2019-04-28T20:51:36.156Z,80.92
2019-04-28T20:54:05.537Z,81.15
2019-04-28T20:56:34.917Z,81.35
2019-04-28T20:59:04.272Z,81.55
2019-04-28T21:01:33.624Z,81.71
2019-04-28T21:04:03.022Z,81.75
2019-04-28T21:06:32.347Z,81.85
2019-04-28T21:09:01.761Z,82.04
2019-04-28T21:11:32.723Z,82.27
2019-04-28T21:14:03.537Z,82.43
2019-04-28T21:16:32.927Z,82.59
2019-04-28T21:19:02.297Z,82.71
2019-04-28T21:21:31.663Z,82.85
2019-04-28T21:24:01.054Z,83.02
2019-04-28T21:26:31.379Z,83.20
2019-04-28T21:29:00.742Z,83.24
2019-04-28T21:31:32.665Z,83.32
2019-04-28T21:34:01.233Z,83.44
2019-04-28T21:36:30.609Z,83.55
2019-04-28T21:38:59.948Z,83.67
2019-04-28T21:41:29.334Z,83.78
2019-04-28T21:44:06.275Z,83.89
2019-04-28T21:46:37.299Z,83.92
2019-04-28T21:49:13.956Z,84.01
2019-04-28T21:51:43.339Z,84.13
2019-04-28T21:54:12.687Z,84.21
2019-04-28T21:56:42.082Z,84.33
2019-04-28T21:59:11.534Z,84.37
2019-04-28T22:01:41.104Z,84.42
2019-04-28T22:04:10.473Z,84.59
2019-04-28T22:06:39.796Z,84.81
2019-04-28T22:09:09.670Z,85.07
2019-04-28T22:11:40.665Z,85.64
2019-04-28T22:14:10.018Z,85.83
2019-04-28T22:16:39.399Z,85.96
2019-04-28T22:19:08.800Z,85.98
2019-04-28T22:21:38.173Z,85.90
2019-04-28T22:24:09.213Z,85.93
2019-04-28T22:26:52.109Z,85.79
2019-04-28T22:29:21.526Z,85.70
2019-04-28T22:31:50.977Z,85.52
2019-04-28T22:34:20.305Z,85.45
2019-04-28T22:36:49.802Z,85.44
2019-04-28T22:39:19.143Z,85.51
2019-04-28T22:41:48.607Z,85.60
2019-04-28T22:44:18.085Z,85.64
2019-04-28T22:46:47.518Z,85.67
2019-04-28T22:49:16.955Z,85.78
2019-04-28T22:51:46.279Z,85.88
2019-04-28T22:54:29.442Z,85.95
2019-04-28T22:57:00.482Z,86.08
2019-04-28T22:59:31.494Z,86.15
2019-04-28T23:02:05.565Z,86.25
2019-04-28T23:04:36.606Z,86.27
2019-04-28T23:07:06.230Z,86.29
2019-04-28T23:09:35.619Z,86.35
2019-04-28T23:12:05.192Z,86.46
2019-04-28T23:14:34.617Z,86.54
2019-04-28T23:17:05.737Z,86.63
2019-04-28T23:19:36.715Z,86.65
2019-04-28T23:22:16.694Z,86.62
2019-04-28T23:24:46.165Z,86.62
2019-04-28T23:27:15.501Z,86.66
2019-04-28T23:29:44.952Z,86.74
2019-04-28T23:32:14.991Z,86.87
2019-04-28T23:34:44.446Z,86.97
2019-04-28T23:37:13.806Z,87.02
2019-04-28T23:39:43.174Z,87.03
2019-04-28T23:42:19.628Z,87.07
2019-04-28T23:44:49.935Z,87.12
2019-04-28T23:47:19.322Z,87.23
2019-04-28T23:49:48.635Z,87.34
